Time;durP1;ratioP1;P1;durP2;ratioP2;P2;SDS_P1;SDS_P2;PMS_P1;PMS_P2;Temp;Humidity;BMP_temperature;BMP_pressure;BME280_temperature;BME280_humidity;BME280_pressure;Samples;Min_cycle;Max_cycle;Signal;HPM_P1;HPM_P2
2023/08/24 02:03:26;;;;;;;5.95;3.28;;;;;;;;;;4253893;33;20049;-80
2023/08/24 02:05:52;;;;;;;5.87;2.87;;;;;;;;;;4255488;33;20150;-82
2023/08/24 02:08:19;;;;;;;13.07;3.87;;;;;;;;;;4253770;33;20515;-81
2023/08/24 02:10:45;;;;;;;9.00;3.12;;;;;;;;;;4253760;33;20506;-81
2023/08/24 02:13:11;;;;;;;3.12;2.83;;;;;;;;;;4241978;33;20094;-81
2023/08/24 02:15:39;;;;;;;15.52;3.65;;;;;;;;;;4252002;33;20091;-80
2023/08/24 02:18:06;;;;;;;9.30;3.30;;;;;;;;;;4253163;33;20047;-81
2023/08/24 02:20:35;;;;;;;7.00;2.92;;;;;;;;;;4247505;33;20753;-80
2023/08/24 02:23:03;;;;;;;3.73;2.87;;;;;;;;;;4239341;33;20508;-81
2023/08/24 02:25:30;;;;;;;9.85;2.83;;;;;;;;;;4224407;34;20164;-80
2023/08/24 02:27:56;;;;;;;8.18;2.87;;;;;;;;;;4204776;34;20050;-81
2023/08/24 02:30:22;;;;;;;4.18;2.85;;;;;;;;;;4210484;34;20027;-80
2023/08/24 02:32:49;;;;;;;3.67;3.10;;;;;;;;;;4223917;34;20077;-80
2023/08/24 02:35:15;;;;;;;4.90;2.80;;;;;;;;;;4223818;34;20471;-80
2023/08/24 02:37:42;;;;;;;9.32;3.05;;;;;;;;;;4180245;34;20061;-82
2023/08/24 02:40:09;;;;;;;4.32;2.33;;;;;;;;;;4171417;34;20125;-81
2023/08/24 02:42:35;;;;;;;2.67;2.47;;;;;;;;;;4166068;34;20060;-81
2023/08/24 02:45:01;;;;;;;5.43;2.75;;;;;;;;;;4169853;34;20059;-81
2023/08/24 02:47:27;;;;;;;15.20;3.12;;;;;;;;;;4180522;34;20073;-81
2023/08/24 02:49:53;;;;;;;8.52;3.28;;;;;;;;;;4207087;34;20059;-81
2023/08/24 02:52:20;;;;;;;6.55;3.10;;;;;;;;;;4210095;34;20047;-81
2023/08/24 02:54:46;;;;;;;9.90;2.75;;;;;;;;;;4196852;34;20430;-81
2023/08/24 02:57:12;;;;;;;9.52;2.75;;;;;;;;;;4205642;34;20051;-81
2023/08/24 02:59:38;;;;;;;6.95;2.35;;;;;;;;;;4195811;34;20035;-81
2023/08/24 03:02:05;;;;;;;6.28;3.62;;;;;;;;;;4195653;34;20066;-81
2023/08/24 03:04:31;;;;;;;8.90;3.15;;;;;;;;;;4196815;34;20116;-81
2023/08/24 03:06:57;;;;;;;8.02;2.72;;;;;;;;;;4197127;34;20493;-81
2023/08/24 03:09:23;;;;;;;7.60;3.12;;;;;;;;;;4192368;34;20036;-82
2023/08/24 03:11:50;;;;;;;4.05;2.75;;;;;;;;;;4180054;34;20052;-82
2023/08/24 03:14:18;;;;;;;4.93;3.03;;;;;;;;;;4183641;34;20136;-81
2023/08/24 03:16:45;;;;;;;6.35;3.33;;;;;;;;;;4183263;34;20055;-81
2023/08/24 03:19:12;;;;;;;7.10;3.20;;;;;;;;;;4183336;34;20418;-82
2023/08/24 03:21:38;;;;;;;7.10;3.33;;;;;;;;;;4176228;34;20066;-81
2023/08/24 03:24:04;;;;;;;9.85;3.42;;;;;;;;;;4180369;34;20055;-81
2023/08/24 03:26:31;;;;;;;4.85;2.87;;;;;;;;;;4182813;34;20043;-82
2023/08/24 03:28:57;;;;;;;3.30;3.00;;;;;;;;;;4182559;34;20039;-81
2023/08/24 03:31:24;;;;;;;12.80;3.60;;;;;;;;;;4182653;34;20056;-81
2023/08/24 03:33:50;;;;;;;16.48;9.07;;;;;;;;;;4168349;34;20031;-80
2023/08/24 03:36:17;;;;;;;14.57;9.50;;;;;;;;;;4167940;34;20048;-82
2023/08/24 03:38:45;;;;;;;11.88;3.33;;;;;;;;;;4169516;34;20084;-82
2023/08/24 03:41:11;;;;;;;4.20;3.50;;;;;;;;;;4171914;34;20485;-81
2023/08/24 03:43:37;;;;;;;8.20;4.40;;;;;;;;;;4179144;34;20043;-81
2023/08/24 03:46:05;;;;;;;7.10;3.53;;;;;;;;;;4184860;34;20066;-82
2023/08/24 03:48:31;;;;;;;18.65;3.72;;;;;;;;;;4196903;34;20529;-82
2023/08/24 03:50:58;;;;;;;9.90;3.75;;;;;;;;;;4196604;34;20070;-81
2023/08/24 03:53:25;;;;;;;10.90;5.18;;;;;;;;;;4195642;34;20069;-82
2023/08/24 03:55:51;;;;;;;11.55;3.72;;;;;;;;;;4194776;34;20224;-81
2023/08/24 03:58:18;;;;;;;9.38;4.93;;;;;;;;;;4195352;34;20066;-81
2023/08/24 04:00:44;;;;;;;12.40;3.12;;;;;;;;;;4195751;34;20356;-80
2023/08/24 04:03:11;;;;;;;11.88;2.75;;;;;;;;;;4196071;34;20057;-80
2023/08/24 04:05:37;;;;;;;6.72;3.42;;;;;;;;;;4204400;34;20051;-80
2023/08/24 04:08:04;;;;;;;11.10;3.53;;;;;;;;;;4210016;34;20562;-80
2023/08/24 04:10:31;;;;;;;6.28;3.15;;;;;;;;;;4222712;34;20058;-81
2023/08/24 04:12:58;;;;;;;9.77;3.15;;;;;;;;;;4223928;34;20038;-80
2023/08/24 04:15:24;;;;;;;6.10;3.10;;;;;;;;;;4245547;33;20076;-80
2023/08/24 04:17:50;;;;;;;7.20;3.33;;;;;;;;;;4249949;33;20054;-80
2023/08/24 04:20:16;;;;;;;9.52;3.22;;;;;;;;;;4247075;33;20508;-79
2023/08/24 04:22:42;;;;;;;6.47;3.10;;;;;;;;;;4202220;34;20211;-79
2023/08/24 04:25:09;;;;;;;5.72;2.83;;;;;;;;;;4208985;34;20042;-80
2023/08/24 04:27:36;;;;;;;8.05;3.28;;;;;;;;;;4209387;34;20077;-83
2023/08/24 04:30:03;;;;;;;5.25;3.80;;;;;;;;;;4180533;34;20056;-82
2023/08/24 04:32:29;;;;;;;10.23;3.53;;;;;;;;;;4195283;34;20031;-83
2023/08/24 04:35:01;;;;;;;13.50;4.07;;;;;;;;;;4196210;34;20059;-84
2023/08/24 04:37:34;;;;;;;8.02;3.33;;;;;;;;;;4196182;34;20047;-82
2023/08/24 04:40:00;;;;;;;7.18;3.05;;;;;;;;;;4172797;34;20543;-83
2023/08/24 04:42:26;;;;;;;8.48;3.12;;;;;;;;;;4153625;34;20039;-83
2023/08/24 04:44:52;;;;;;;6.85;2.97;;;;;;;;;;4154719;34;20060;-80
2023/08/24 04:47:19;;;;;;;7.10;3.15;;;;;;;;;;4153395;34;20033;-82
2023/08/24 04:49:45;;;;;;;11.25;3.40;;;;;;;;;;4154538;34;20070;-83
2023/08/24 04:52:11;;;;;;;8.25;3.55;;;;;;;;;;4153537;34;20477;-84
2023/08/24 04:54:37;;;;;;;10.77;2.58;;;;;;;;;;4138818;34;20079;-77
2023/08/24 04:57:03;;;;;;;6.53;2.90;;;;;;;;;;4139913;34;20059;-81
2023/08/24 04:59:29;;;;;;;7.12;2.53;;;;;;;;;;4144405;34;20052;-79
2023/08/24 05:01:56;;;;;;;9.23;3.25;;;;;;;;;;4163834;34;20073;-82
2023/08/24 05:04:22;;;;;;;4.70;2.62;;;;;;;;;;4166293;34;20175;-81
2023/08/24 05:06:48;;;;;;;9.45;3.33;;;;;;;;;;4167548;34;20064;-82
2023/08/24 05:09:14;;;;;;;22.83;3.17;;;;;;;;;;4166008;34;20065;-78
2023/08/24 05:11:40;;;;;;;16.30;3.20;;;;;;;;;;4177423;34;20401;-80
2023/08/24 05:14:06;;;;;;;10.88;3.85;;;;;;;;;;4190928;34;20065;-83
2023/08/24 05:16:33;;;;;;;15.00;3.22;;;;;;;;;;4193995;34;20134;-84
2023/08/24 05:18:59;;;;;;;8.32;3.45;;;;;;;;;;4205013;34;20054;-81
2023/08/24 05:21:25;;;;;;;8.07;2.92;;;;;;;;;;4198686;34;21066;-81
2023/08/24 05:23:51;;;;;;;4.60;3.03;;;;;;;;;;4195357;34;20061;-81
2023/08/24 05:26:22;;;;;;;5.70;3.08;;;;;;;;;;4214264;34;20061;-81
2023/08/24 05:28:48;;;;;;;11.13;4.07;;;;;;;;;;4220673;34;20081;-79
2023/08/24 05:31:14;;;;;;;9.15;2.80;;;;;;;;;;4246916;33;20542;-80
2023/08/24 05:33:43;;;;;;;3.83;2.85;;;;;;;;;;4252418;33;20042;-82
2023/08/24 05:36:10;;;;;;;11.80;3.58;;;;;;;;;;4253622;33;20060;-83
2023/08/24 05:38:37;;;;;;;4.70;2.55;;;;;;;;;;4252039;33;20046;-83
2023/08/24 05:41:03;;;;;;;4.45;3.33;;;;;;;;;;4251442;33;20064;-81
2023/08/24 05:43:29;;;;;;;10.55;3.08;;;;;;;;;;4253769;33;20404;-81
2023/08/24 05:45:56;;;;;;;6.43;3.22;;;;;;;;;;4253607;33;20066;-81
2023/08/24 05:48:22;;;;;;;5.07;2.62;;;;;;;;;;4252908;33;20521;-83
2023/08/24 05:50:48;;;;;;;2.90;2.55;;;;;;;;;;4247164;33;20042;-81
2023/08/24 05:53:15;;;;;;;5.70;2.60;;;;;;;;;;4237767;33;20046;-81
2023/08/24 05:55:47;;;;;;;5.32;2.95;;;;;;;;;;4247077;33;20070;-82
2023/08/24 05:58:13;;;;;;;4.85;3.00;;;;;;;;;;4251466;33;20068;-83
2023/08/24 06:00:40;;;;;;;20.73;2.85;;;;;;;;;;4234405;33;20051;-82
2023/08/24 06:03:06;;;;;;;6.65;2.83;;;;;;;;;;4234890;33;20077;-81
2023/08/24 06:05:32;;;;;;;5.87;2.55;;;;;;;;;;4232470;33;20074;-81
2023/08/24 06:07:58;;;;;;;9.75;3.42;;;;;;;;;;4237085;33;20062;-79
2023/08/24 06:10:26;;;;;;;7.25;2.60;;;;;;;;;;4236258;33;20061;-83
2023/08/24 06:12:53;;;;;;;5.18;2.40;;;;;;;;;;4231696;33;20055;-81
2023/08/24 06:15:19;;;;;;;5.93;2.75;;;;;;;;;;4220604;34;20197;-80
2023/08/24 06:17:47;;;;;;;8.73;2.80;;;;;;;;;;4221114;34;20038;-83
2023/08/24 06:20:13;;;;;;;5.28;3.15;;;;;;;;;;4222452;34;20085;-83
2023/08/24 06:22:39;;;;;;;9.20;3.47;;;;;;;;;;4222530;33;20073;-80
2023/08/24 06:25:08;;;;;;;7.82;2.72;;;;;;;;;;4217612;34;20473;-81
2023/08/24 06:27:35;;;;;;;7.80;3.37;;;;;;;;;;4220584;34;20374;-81
2023/08/24 06:30:03;;;;;;;11.10;3.28;;;;;;;;;;4225155;34;20047;-80
2023/08/24 06:32:29;;;;;;;6.43;2.85;;;;;;;;;;4237533;33;20057;-83
2023/08/24 06:34:55;;;;;;;13.80;2.65;;;;;;;;;;4238639;33;20046;-79
2023/08/24 06:37:21;;;;;;;12.02;3.15;;;;;;;;;;4222890;34;20078;-80
2023/08/24 06:39:48;;;;;;;13.40;3.35;;;;;;;;;;4223923;33;20046;-80
2023/08/24 06:42:15;;;;;;;8.25;2.78;;;;;;;;;;4219581;34;20178;-87
2023/08/24 06:44:41;;;;;;;5.55;2.97;;;;;;;;;;4222274;34;20038;-84
2023/08/24 06:47:14;;;;;;;6.95;2.50;;;;;;;;;;4223737;34;20047;-80
2023/08/24 06:49:39;;;;;;;4.28;2.87;;;;;;;;;;4223299;33;20488;-80
2023/08/24 06:52:06;;;;;;;11.30;2.60;;;;;;;;;;4224199;34;20454;-81
2023/08/24 06:54:32;;;;;;;12.02;3.20;;;;;;;;;;4227597;33;20107;-80
2023/08/24 06:56:58;;;;;;;6.43;2.90;;;;;;;;;;4227211;34;20058;-81
2023/08/24 06:59:24;;;;;;;3.78;2.87;;;;;;;;;;4222723;34;20030;-81
2023/08/24 07:01:52;;;;;;;8.18;3.10;;;;;;;;;;4222517;34;20062;-80
2023/08/24 07:04:17;;;;;;;5.12;2.58;;;;;;;;;;4211991;34;20058;-80
2023/08/24 07:06:44;;;;;;;5.45;3.00;;;;;;;;;;4212983;34;20084;-80
2023/08/24 07:09:10;;;;;;;6.35;2.92;;;;;;;;;;4199379;34;20436;-82
2023/08/24 07:11:36;;;;;;;7.20;2.87;;;;;;;;;;4224142;34;20073;-80
2023/08/24 07:14:03;;;;;;;6.18;3.00;;;;;;;;;;4234276;33;20042;-81
2023/08/24 07:16:29;;;;;;;12.63;3.42;;;;;;;;;;4231245;33;20080;-78
2023/08/24 07:18:55;;;;;;;7.35;2.87;;;;;;;;;;4227601;34;20051;-79
2023/08/24 07:21:22;;;;;;;9.68;3.25;;;;;;;;;;4227834;33;20416;-81
2023/08/24 07:23:48;;;;;;;11.20;3.03;;;;;;;;;;4233003;33;20054;-82
2023/08/24 07:26:14;;;;;;;10.90;3.35;;;;;;;;;;4232953;33;20358;-78
2023/08/24 07:28:40;;;;;;;10.32;3.05;;;;;;;;;;4227682;33;20073;-78
2023/08/24 07:31:07;;;;;;;5.05;2.95;;;;;;;;;;4214275;34;20073;-80
2023/08/24 07:33:33;;;;;;;16.95;3.05;;;;;;;;;;4210962;34;20043;-81
2023/08/24 07:36:04;;;;;;;6.20;3.08;;;;;;;;;;4224383;34;20070;-79
2023/08/24 07:38:30;;;;;;;5.22;2.70;;;;;;;;;;4215986;34;20054;-80
2023/08/24 07:40:57;;;;;;;8.98;3.30;;;;;;;;;;4224198;34;20089;-81
2023/08/24 07:43:24;;;;;;;7.87;3.30;;;;;;;;;;4224009;34;20433;-78
2023/08/24 07:45:51;;;;;;;3.08;2.30;;;;;;;;;;4206386;34;20055;-83
2023/08/24 07:48:24;;;;;;;11.77;3.62;;;;;;;;;;4206651;34;20095;-81
